Terminal Aerodrome Forecast
Issued by NWS Omaha/Valley, NE

Home | Current Version | Previous Version | Text Only | Print | Product List | Glossary On
Versions: 1 2 3 4 5 6 7 8 9 10 11 12 13 14 15 16
000
FTUS43 KOAX 302320
TAFLNK
TAF
KLNK 302320Z 3100/3124 18011KT P6SM SCT070 BKN250
     FM311200 26007KT P6SM VCSH SCT050 BKN070
     FM311500 31008KT P6SM -SHRA SCT035 BKN080 PROB30 3115/3121 P6SM
      -TSRA BKN040CB
     FM312200 35006KT P6SM SCT070=

USA.gov is the U.S. government's official web portal to all federal, state and local government web resources and services.